createdAt,value
2018-02-11T00:01:43.407Z,27.27
2018-02-11T00:04:15.341Z,27.43
2018-02-11T00:06:46.229Z,26.83
2018-02-11T00:09:16.955Z,27.23
2018-02-11T00:11:48.560Z,28.73
2018-02-11T00:14:19.468Z,27.53
2018-02-11T00:16:50.134Z,28.30
2018-02-11T00:19:21.033Z,28.23
2018-02-11T00:21:51.655Z,27.43
2018-02-11T00:24:22.327Z,30.07
2018-02-11T00:26:53.206Z,27.00
2018-02-11T00:29:24.485Z,30.20
2018-02-11T00:31:55.064Z,26.90
2018-02-11T00:34:25.795Z,25.87
2018-02-11T00:36:56.542Z,27.90
2018-02-11T00:39:27.417Z,28.00
2018-02-11T00:41:58.129Z,27.43
2018-02-11T00:44:29.779Z,27.03
2018-02-11T00:47:01.154Z,26.00
2018-02-11T00:49:31.883Z,27.00
2018-02-11T00:52:02.661Z,26.40
2018-02-11T00:54:33.134Z,26.03
2018-02-11T00:57:04.626Z,26.20
2018-02-11T00:59:35.146Z,24.60
2018-02-11T01:02:05.903Z,26.70
2018-02-11T01:04:36.478Z,27.57
2018-02-11T01:07:07.954Z,24.37
2018-02-11T01:09:38.777Z,24.67
2018-02-11T01:12:09.255Z,25.90
2018-02-11T01:14:40.086Z,27.03
2018-02-11T01:17:11.609Z,25.67
2018-02-11T01:19:42.213Z,29.00
2018-02-11T01:22:13.785Z,29.83
2018-02-11T01:24:44.470Z,28.73
2018-02-11T01:27:15.088Z,31.83
2018-02-11T01:29:45.853Z,30.13
2018-02-11T01:32:17.430Z,29.27
2018-02-11T01:34:48.213Z,28.50
2018-02-11T01:37:18.882Z,31.50
2018-02-11T01:39:50.479Z,38.90
2018-02-11T01:42:21.434Z,34.90
2018-02-11T01:44:52.234Z,30.80
2018-02-11T01:47:22.975Z,28.60
2018-02-11T01:50:04.501Z,29.40
2018-02-11T01:52:35.257Z,30.10
2018-02-11T01:55:06.866Z,28.17
2018-02-11T01:57:37.427Z,26.93
2018-02-11T02:00:07.964Z,29.80
2018-02-11T02:02:40.291Z,30.37
2018-02-11T02:05:11.419Z,28.53
2018-02-11T02:07:42.354Z,33.10
2018-02-11T02:10:13.135Z,29.43
2018-02-11T02:12:44.053Z,30.73
2018-02-11T02:15:14.893Z,31.33
2018-02-11T02:17:45.641Z,30.30
2018-02-11T02:20:16.226Z,29.50
2018-02-11T02:22:47.154Z,29.83
2018-02-11T02:25:18.023Z,31.10
2018-02-11T02:27:48.971Z,30.37
2018-02-11T02:30:19.734Z,31.30
2018-02-11T02:32:50.730Z,30.33
2018-02-11T02:35:22.257Z,30.30
2018-02-11T02:37:52.823Z,30.53
2018-02-11T02:40:23.638Z,31.60
2018-02-11T02:42:54.317Z,35.83
2018-02-11T02:45:25.267Z,32.67
2018-02-11T02:47:56.034Z,31.93
2018-02-11T02:50:26.773Z,35.40
2018-02-11T02:52:57.699Z,35.83
2018-02-11T02:55:28.570Z,32.47
2018-02-11T02:57:59.317Z,33.20
2018-02-11T03:00:30.001Z,32.10
2018-02-11T03:03:00.737Z,34.33
2018-02-11T03:05:32.626Z,33.27
2018-02-11T03:08:03.942Z,34.00
2018-02-11T03:10:37.611Z,32.80
2018-02-11T03:13:08.501Z,35.20
2018-02-11T03:15:39.377Z,34.77
2018-02-11T03:18:10.851Z,36.23
2018-02-11T03:20:43.114Z,32.57
2018-02-11T03:23:15.098Z,34.80
2018-02-11T03:25:46.624Z,34.57
2018-02-11T03:28:18.374Z,36.20
2018-02-11T03:30:49.611Z,31.53
2018-02-11T03:33:20.354Z,33.63
2018-02-11T03:35:51.301Z,33.50
2018-02-11T03:38:22.137Z,31.97
2018-02-11T03:40:53.055Z,33.37
2018-02-11T03:43:24.002Z,32.23
2018-02-11T03:45:54.582Z,33.20
2018-02-11T03:48:25.238Z,33.97
2018-02-11T03:50:55.853Z,32.13
2018-02-11T03:53:26.931Z,35.43
2018-02-11T03:55:57.424Z,32.10
2018-02-11T03:58:28.142Z,37.60
2018-02-11T04:00:59.975Z,33.00
2018-02-11T04:03:30.813Z,32.20
2018-02-11T04:06:01.635Z,30.70
2018-02-11T04:08:32.570Z,34.50
2018-02-11T04:11:03.422Z,30.93
2018-02-11T04:13:34.180Z,32.43
2018-02-11T04:16:05.833Z,31.00
2018-02-11T04:18:36.626Z,29.03
2018-02-11T04:21:07.439Z,31.80
2018-02-11T04:23:38.280Z,32.10
2018-02-11T04:26:09.155Z,30.90
2018-02-11T04:28:39.818Z,30.43
2018-02-11T04:31:10.993Z,31.03
2018-02-11T04:33:41.922Z,31.33
2018-02-11T04:36:12.698Z,30.83
2018-02-11T04:38:43.364Z,30.73
2018-02-11T04:41:14.145Z,30.87
2018-02-11T04:43:44.724Z,31.20
2018-02-11T04:46:16.592Z,30.30
2018-02-11T04:48:48.132Z,27.93
2018-02-11T04:51:19.754Z,28.00
2018-02-11T04:53:50.435Z,30.80
2018-02-11T04:56:21.276Z,28.47
2018-02-11T04:58:52.024Z,28.83
2018-02-11T05:01:22.714Z,29.37
2018-02-11T05:03:54.277Z,26.50
2018-02-11T05:06:25.827Z,28.93
2018-02-11T05:08:57.693Z,27.37
2018-02-11T05:11:29.217Z,28.33
2018-02-11T05:14:00.834Z,27.60
2018-02-11T05:16:31.762Z,28.10
2018-02-11T05:19:02.452Z,29.47
2018-02-11T05:21:34.750Z,30.40
2018-02-11T05:24:06.245Z,28.90
2018-02-11T05:26:37.215Z,28.30
2018-02-11T05:29:07.958Z,29.93
2018-02-11T05:31:39.486Z,27.57
2018-02-11T05:34:10.454Z,29.67
2018-02-11T05:36:42.082Z,32.07
2018-02-11T05:39:12.911Z,29.37
2018-02-11T05:41:43.796Z,28.97
2018-02-11T05:44:15.341Z,28.17
2018-02-11T05:46:47.121Z,31.13
2018-02-11T05:49:17.763Z,28.67
2018-02-11T05:51:48.558Z,29.23
2018-02-11T05:54:20.163Z,29.03
2018-02-11T05:56:51.254Z,30.83
2018-02-11T05:59:22.997Z,29.33
2018-02-11T06:01:54.617Z,29.10
2018-02-11T06:04:25.264Z,31.30
2018-02-11T06:06:56.009Z,28.83
2018-02-11T06:09:26.949Z,31.97
2018-02-11T06:11:58.403Z,31.10
2018-02-11T06:14:29.133Z,34.03
2018-02-11T06:16:59.969Z,30.90
2018-02-11T06:19:30.801Z,28.97
2018-02-11T06:22:01.614Z,32.27
2018-02-11T06:24:32.359Z,29.37
2018-02-11T06:27:03.541Z,32.10
2018-02-11T06:29:35.603Z,31.40
2018-02-11T06:32:07.636Z,30.80
2018-02-11T06:34:38.419Z,31.03
2018-02-11T06:37:09.937Z,30.00
2018-02-11T06:39:40.754Z,32.57
2018-02-11T06:42:11.565Z,32.53
2018-02-11T06:44:42.520Z,32.43
2018-02-11T06:47:13.375Z,30.93
2018-02-11T06:49:44.183Z,32.47
2018-02-11T06:52:15.225Z,36.87
2018-02-11T06:54:46.015Z,31.97
2018-02-11T06:57:17.639Z,36.40
2018-02-11T06:59:48.240Z,33.27
2018-02-11T07:02:19.006Z,31.93
2018-02-11T07:04:50.610Z,31.90
2018-02-11T07:07:21.598Z,33.27
2018-02-11T07:09:52.665Z,33.53
2018-02-11T07:12:24.274Z,33.37
2018-02-11T07:14:54.953Z,33.67
2018-02-11T07:17:25.892Z,32.30
2018-02-11T07:20:03.690Z,32.53
2018-02-11T07:22:35.064Z,32.10
2018-02-11T07:25:06.320Z,33.27
2018-02-11T07:27:37.226Z,31.17
2018-02-11T07:30:08.956Z,30.83
2018-02-11T07:32:40.054Z,31.20
2018-02-11T07:35:10.618Z,32.53
2018-02-11T07:37:41.507Z,31.27
2018-02-11T07:40:12.020Z,31.30
2018-02-11T07:42:43.646Z,33.53
2018-02-11T07:45:14.104Z,32.60
2018-02-11T07:47:45.893Z,29.90
2018-02-11T07:50:17.565Z,31.57
2018-02-11T07:52:48.497Z,33.77
2018-02-11T07:55:19.170Z,33.27
2018-02-11T07:57:49.947Z,34.20
2018-02-11T08:00:20.888Z,34.67
2018-02-11T08:02:52.004Z,34.40
2018-02-11T08:05:23.690Z,38.33
2018-02-11T08:07:54.700Z,34.33
2018-02-11T08:10:26.542Z,34.80
2018-02-11T08:12:57.282Z,35.40
2018-02-11T08:15:28.287Z,35.30
2018-02-11T08:17:59.268Z,34.97
2018-02-11T08:20:31.153Z,33.73
2018-02-11T08:23:02.016Z,34.10
2018-02-11T08:25:33.160Z,33.70
2018-02-11T08:28:03.992Z,32.27
2018-02-11T08:30:34.902Z,35.27
2018-02-11T08:33:06.755Z,33.93
2018-02-11T08:35:38.397Z,35.47
2018-02-11T08:38:09.867Z,33.70
2018-02-11T08:40:41.510Z,33.77
2018-02-11T08:43:13.102Z,32.80
2018-02-11T08:45:43.902Z,35.27
2018-02-11T08:48:15.666Z,33.07
2018-02-11T08:50:47.323Z,32.47
2018-02-11T08:53:19.060Z,33.40
2018-02-11T08:55:49.779Z,36.73
2018-02-11T08:58:20.692Z,34.33
2018-02-11T09:00:51.619Z,35.17
2018-02-11T09:03:22.622Z,33.93
2018-02-11T09:05:54.245Z,37.13
2018-02-11T09:08:25.131Z,32.57
2018-02-11T09:10:55.978Z,34.27
2018-02-11T09:13:26.896Z,35.53
2018-02-11T09:15:58.747Z,32.93
2018-02-11T09:18:30.401Z,34.30
2018-02-11T09:21:02.000Z,32.60
2018-02-11T09:23:32.921Z,30.57
2018-02-11T09:26:03.943Z,31.63
2018-02-11T09:28:35.578Z,30.97
2018-02-11T09:31:06.595Z,30.03
2018-02-11T09:33:38.902Z,30.37
2018-02-11T09:36:10.437Z,28.53
2018-02-11T09:38:41.165Z,29.43
2018-02-11T09:41:12.012Z,29.83
2018-02-11T09:43:43.378Z,30.33
2018-02-11T09:46:14.891Z,28.43
2018-02-11T09:48:45.698Z,31.23
2018-02-11T09:51:16.584Z,29.20
2018-02-11T09:53:47.230Z,30.20
2018-02-11T09:56:19.189Z,28.77
2018-02-11T09:58:50.794Z,29.87
2018-02-11T10:01:21.502Z,28.67
2018-02-11T10:03:53.076Z,28.47
2018-02-11T10:06:25.083Z,29.17
2018-02-11T10:08:56.845Z,29.87
2018-02-11T10:11:27.580Z,32.27
2018-02-11T10:13:58.330Z,31.17
2018-02-11T10:16:29.897Z,30.47
2018-02-11T10:19:01.781Z,35.23
2018-02-11T10:21:32.635Z,32.20
2018-02-11T10:24:04.221Z,32.47
2018-02-11T10:26:34.757Z,30.17
2018-02-11T10:29:06.446Z,30.63
2018-02-11T10:31:38.458Z,30.63
2018-02-11T10:34:09.811Z,31.73
2018-02-11T10:36:40.783Z,30.87
2018-02-11T10:39:11.644Z,30.10
2018-02-11T10:41:42.319Z,31.47
2018-02-11T10:44:13.174Z,30.53
2018-02-11T10:46:44.701Z,29.23
2018-02-11T10:49:15.624Z,30.90
2018-02-11T10:51:46.154Z,30.90
2018-02-11T10:54:17.714Z,35.40
2018-02-11T10:56:48.905Z,35.03
2018-02-11T10:59:19.733Z,31.33
2018-02-11T11:01:51.327Z,29.87
2018-02-11T11:04:22.301Z,32.10
2018-02-11T11:06:52.998Z,33.20
2018-02-11T11:09:23.721Z,31.17
2018-02-11T11:11:54.458Z,31.33
2018-02-11T11:14:25.437Z,31.10
2018-02-11T11:16:56.326Z,30.37
2018-02-11T11:19:27.316Z,35.87
2018-02-11T11:21:58.171Z,31.23
2018-02-11T11:24:29.911Z,29.60
2018-02-11T11:27:00.658Z,28.90
2018-02-11T11:29:32.739Z,27.80
2018-02-11T11:32:04.358Z,29.93
2018-02-11T11:34:35.333Z,30.43
2018-02-11T11:37:06.958Z,33.33
2018-02-11T11:39:37.863Z,34.37
2018-02-11T11:42:08.628Z,31.03
2018-02-11T11:44:39.465Z,31.93
2018-02-11T11:47:10.310Z,29.13
2018-02-11T11:49:41.199Z,30.07
2018-02-11T11:52:12.153Z,33.17
2018-02-11T11:54:43.119Z,29.87
2018-02-11T11:57:13.780Z,30.90
2018-02-11T11:59:45.539Z,28.90
2018-02-11T12:02:16.471Z,32.77
2018-02-11T12:04:48.083Z,30.53
2018-02-11T12:07:19.181Z,35.37
2018-02-11T12:09:50.221Z,33.60
2018-02-11T12:12:21.024Z,28.63
2018-02-11T12:14:51.761Z,28.43
2018-02-11T12:17:23.384Z,28.30
2018-02-11T12:19:55.074Z,29.80
2018-02-11T12:22:25.658Z,27.80
2018-02-11T12:24:56.687Z,27.33
2018-02-11T12:27:27.614Z,29.23
2018-02-11T12:29:58.421Z,30.00
2018-02-11T12:32:30.286Z,28.93
2018-02-11T12:35:01.711Z,28.57
2018-02-11T12:37:32.794Z,28.20
2018-02-11T12:40:04.627Z,26.83
2018-02-11T12:42:35.584Z,28.93
2018-02-11T12:45:07.193Z,32.53
2018-02-11T12:47:37.998Z,29.20
2018-02-11T12:50:08.913Z,28.03
2018-02-11T12:52:40.573Z,28.50
2018-02-11T12:55:12.219Z,30.10
2018-02-11T12:57:44.239Z,36.07
2018-02-11T13:00:15.547Z,47.77
2018-02-11T13:02:46.813Z,34.23
2018-02-11T13:05:18.470Z,34.33
2018-02-11T13:07:49.962Z,37.90
2018-02-11T13:10:21.228Z,31.23
2018-02-11T13:12:51.988Z,29.40
2018-02-11T13:15:22.803Z,31.43
2018-02-11T13:17:54.395Z,29.70
2018-02-11T13:20:26.788Z,29.53
2018-02-11T13:22:57.848Z,35.60
2018-02-11T13:25:28.404Z,28.13
2018-02-11T13:28:00.320Z,32.50
2018-02-11T13:30:31.378Z,31.37
2018-02-11T13:33:02.529Z,33.67
2018-02-11T13:35:34.790Z,29.80
2018-02-11T13:38:06.699Z,32.53
2018-02-11T13:40:37.433Z,30.97
2018-02-11T13:43:08.781Z,32.47
2018-02-11T13:45:39.836Z,31.93
2018-02-11T13:48:10.850Z,33.33
2018-02-11T13:50:41.975Z,32.40
2018-02-11T13:53:12.971Z,31.33
2018-02-11T13:55:43.978Z,39.33
2018-02-11T13:58:15.909Z,33.93
2018-02-11T14:00:47.539Z,29.97
2018-02-11T14:03:18.574Z,32.30
2018-02-11T14:05:49.943Z,33.50
2018-02-11T14:08:20.867Z,30.70
2018-02-11T14:10:52.252Z,36.87
2018-02-11T14:13:23.890Z,31.67
2018-02-11T14:15:54.678Z,34.97
2018-02-11T14:18:25.508Z,38.00
2018-02-11T14:20:56.956Z,40.50
2018-02-11T14:23:28.006Z,39.90
2018-02-11T14:25:58.977Z,44.97
2018-02-11T14:28:30.288Z,41.63
2018-02-11T14:31:01.677Z,42.23
2018-02-11T14:33:33.073Z,37.47
2018-02-11T14:36:03.999Z,41.70
2018-02-11T14:38:36.792Z,33.10
2018-02-11T14:41:09.269Z,43.90
2018-02-11T14:43:40.810Z,44.70
2018-02-11T14:46:13.004Z,38.27
2018-02-11T14:48:44.779Z,36.43
2018-02-11T14:51:16.082Z,38.30
2018-02-11T14:53:48.122Z,40.30
2018-02-11T14:56:19.733Z,36.03
2018-02-11T14:58:52.050Z,39.17
2018-02-11T15:01:23.659Z,35.60
2018-02-11T15:03:55.205Z,38.53
2018-02-11T15:06:27.343Z,40.40
2018-02-11T15:08:59.124Z,40.87
2018-02-11T15:11:30.823Z,38.00
2018-02-11T15:14:01.713Z,37.57
2018-02-11T15:16:32.610Z,39.10
2018-02-11T15:19:03.927Z,38.67
2018-02-11T15:21:35.298Z,37.97
2018-02-11T15:24:06.983Z,38.90
2018-02-11T15:26:38.882Z,39.90
2018-02-11T15:29:09.777Z,40.83
2018-02-11T15:31:40.687Z,40.43
2018-02-11T15:34:11.574Z,38.07
2018-02-11T15:36:42.650Z,38.00
2018-02-11T15:39:14.257Z,38.50
2018-02-11T15:41:45.913Z,37.20
2018-02-11T15:44:17.903Z,38.83
2018-02-11T15:46:49.133Z,38.20
2018-02-11T15:49:20.904Z,44.47
2018-02-11T15:51:52.047Z,42.17
2018-02-11T15:54:23.276Z,42.73
2018-02-11T15:56:55.230Z,48.37
2018-02-11T15:59:26.286Z,42.67
2018-02-11T16:01:58.542Z,38.37
2018-02-11T16:04:30.473Z,39.80
2018-02-11T16:07:01.575Z,45.63
2018-02-11T16:09:32.750Z,47.73
2018-02-11T16:12:03.975Z,45.00
2018-02-11T16:14:35.134Z,38.73
2018-02-11T16:17:06.810Z,36.70
2018-02-11T16:19:38.337Z,44.77
2018-02-11T16:22:09.100Z,41.27
2018-02-11T16:24:40.357Z,40.17
2018-02-11T16:27:11.270Z,46.67
2018-02-11T16:29:42.410Z,39.90
2018-02-11T16:32:13.358Z,41.40
2018-02-11T16:34:44.644Z,41.43
2018-02-11T16:37:16.486Z,46.77
2018-02-11T16:39:47.611Z,42.13
2018-02-11T16:42:19.213Z,39.87
2018-02-11T16:44:51.221Z,39.13
2018-02-11T16:47:22.752Z,44.70
2018-02-11T16:49:54.086Z,45.40
2018-02-11T16:52:24.987Z,43.33
2018-02-11T16:54:55.562Z,43.40
2018-02-11T16:57:26.574Z,40.93
2018-02-11T16:59:57.937Z,39.87
2018-02-11T17:02:29.661Z,49.30
2018-02-11T17:05:00.399Z,38.63
2018-02-11T17:07:31.425Z,41.13
2018-02-11T17:10:02.261Z,44.47
2018-02-11T17:12:33.186Z,42.50
2018-02-11T17:15:04.746Z,45.00
2018-02-11T17:17:35.690Z,40.10
2018-02-11T17:20:06.615Z,39.30
2018-02-11T17:22:37.346Z,39.53
2018-02-11T17:25:08.307Z,42.30
2018-02-11T17:27:39.058Z,41.53
2018-02-11T17:30:10.595Z,50.03
2018-02-11T17:32:41.403Z,43.47
2018-02-11T17:35:13.178Z,40.17
2018-02-11T17:37:44.052Z,40.87
2018-02-11T17:40:15.790Z,40.27
2018-02-11T17:42:47.099Z,39.60
2018-02-11T17:45:18.173Z,41.80
2018-02-11T17:47:48.906Z,42.40
2018-02-11T17:50:19.717Z,42.87
2018-02-11T17:52:50.513Z,42.30
2018-02-11T17:55:22.083Z,44.57
2018-02-11T17:57:52.623Z,43.03
2018-02-11T18:00:23.358Z,42.50
2018-02-11T18:02:54.559Z,40.17
2018-02-11T18:05:26.276Z,44.50
2018-02-11T18:07:57.110Z,39.13
2018-02-11T18:10:27.652Z,38.23
2018-02-11T18:12:58.601Z,38.50
2018-02-11T18:15:29.414Z,46.60
2018-02-11T18:18:00.169Z,40.90
2018-02-11T18:20:30.861Z,43.70
2018-02-11T18:23:01.784Z,40.27
2018-02-11T18:25:32.536Z,41.27
2018-02-11T18:28:03.431Z,44.13
2018-02-11T18:30:35.064Z,41.10
2018-02-11T18:33:05.884Z,40.07
2018-02-11T18:35:36.735Z,46.57
2018-02-11T18:38:07.703Z,41.77
2018-02-11T18:40:39.666Z,40.87
2018-02-11T18:43:11.231Z,38.90
2018-02-11T18:45:42.920Z,45.63
2018-02-11T18:48:13.821Z,37.60
2018-02-11T18:50:45.195Z,40.80
2018-02-11T18:53:16.029Z,41.73
2018-02-11T18:55:46.698Z,43.13
2018-02-11T18:58:17.664Z,43.10
2018-02-11T19:00:48.967Z,42.27
2018-02-11T19:03:19.962Z,40.47
2018-02-11T19:05:51.575Z,39.97
2018-02-11T19:08:22.284Z,37.60
2018-02-11T19:10:53.151Z,42.93
2018-02-11T19:13:24.105Z,44.63
2018-02-11T19:15:54.875Z,40.70
2018-02-11T19:18:25.935Z,41.43
2018-02-11T19:20:56.802Z,45.00
2018-02-11T19:23:27.630Z,45.50
2018-02-11T19:25:58.448Z,42.83
2018-02-11T19:28:29.217Z,41.40
2018-02-11T19:31:00.019Z,42.27
2018-02-11T19:33:31.046Z,39.47
2018-02-11T19:36:02.028Z,40.60
2018-02-11T19:38:32.863Z,36.97
2018-02-11T19:41:03.686Z,40.87
2018-02-11T19:43:34.511Z,39.20
2018-02-11T19:46:05.350Z,39.47
2018-02-11T19:48:36.087Z,38.63
2018-02-11T19:51:06.945Z,37.90
2018-02-11T19:53:37.654Z,40.80
2018-02-11T19:56:08.452Z,39.17
2018-02-11T19:58:40.129Z,39.10
2018-02-11T20:01:11.114Z,40.13
2018-02-11T20:03:41.930Z,39.30
2018-02-11T20:06:12.630Z,38.30
2018-02-11T20:08:43.577Z,38.00
2018-02-11T20:11:14.343Z,38.57
2018-02-11T20:13:45.225Z,40.90
2018-02-11T20:16:16.424Z,38.00
2018-02-11T20:18:46.834Z,42.00
2018-02-11T20:21:17.252Z,39.80
2018-02-11T20:23:48.042Z,38.90
2018-02-11T20:26:19.548Z,45.10
2018-02-11T20:28:50.350Z,38.07
2018-02-11T20:31:21.942Z,40.50
2018-02-11T20:33:52.794Z,40.30
2018-02-11T20:36:23.623Z,43.17
2018-02-11T20:38:54.442Z,37.20
2018-02-11T20:41:25.437Z,39.53
2018-02-11T20:43:57.233Z,39.53
2018-02-11T20:46:28.190Z,38.03
2018-02-11T20:48:58.986Z,40.33
2018-02-11T20:51:29.677Z,40.83
2018-02-11T20:54:00.247Z,41.97
2018-02-11T20:56:31.808Z,37.40
2018-02-11T20:59:02.482Z,39.27
2018-02-11T21:01:33.131Z,39.00
2018-02-11T21:04:05.634Z,36.77
2018-02-11T21:06:37.161Z,38.83
2018-02-11T21:09:08.209Z,38.10
2018-02-11T21:11:38.866Z,35.30
2018-02-11T21:14:10.032Z,36.37
2018-02-11T21:16:41.240Z,42.50
2018-02-11T21:19:12.894Z,43.67
2018-02-11T21:21:44.389Z,42.40
2018-02-11T21:24:15.090Z,37.23
2018-02-11T21:26:46.469Z,39.50
2018-02-11T21:29:17.481Z,35.70
2018-02-11T21:31:49.001Z,38.90
2018-02-11T21:34:19.943Z,42.87
2018-02-11T21:36:50.618Z,39.53
2018-02-11T21:39:21.508Z,38.50
2018-02-11T21:41:52.314Z,35.83
2018-02-11T21:44:23.282Z,36.07
2018-02-11T21:46:54.125Z,36.47
2018-02-11T21:49:24.630Z,35.80
2018-02-11T21:51:55.473Z,37.50
2018-02-11T21:54:26.118Z,38.40
2018-02-11T21:56:57.558Z,38.80
2018-02-11T21:59:28.329Z,37.47
2018-02-11T22:01:59.759Z,37.60
2018-02-11T22:04:30.657Z,37.53
2018-02-11T22:07:01.445Z,37.37
2018-02-11T22:09:33.159Z,35.33
2018-02-11T22:12:04.141Z,37.40
2018-02-11T22:14:35.572Z,43.93
2018-02-11T22:17:06.408Z,40.83
2018-02-11T22:19:37.062Z,43.03
2018-02-11T22:22:08.634Z,39.90
2018-02-11T22:24:40.334Z,40.80
2018-02-11T22:27:11.137Z,39.93
2018-02-11T22:29:41.814Z,41.27
2018-02-11T22:32:12.634Z,40.33
2018-02-11T22:34:43.794Z,38.97
2018-02-11T22:37:15.425Z,36.77
2018-02-11T22:39:46.355Z,38.60
2018-02-11T22:42:16.921Z,36.70
2018-02-11T22:44:47.739Z,40.90
2018-02-11T22:50:39.371Z,36.03
2018-02-11T22:53:10.193Z,40.30
2018-02-11T22:55:40.966Z,37.63
2018-02-11T22:58:11.622Z,40.07
2018-02-11T23:00:42.414Z,39.93
2018-02-11T23:03:13.371Z,46.33
2018-02-11T23:05:44.202Z,38.50
2018-02-11T23:08:15.014Z,36.07
2018-02-11T23:10:47.242Z,37.50
2018-02-11T23:13:18.025Z,40.03
2018-02-11T23:15:48.367Z,35.67
2018-02-11T23:18:18.809Z,38.10
2018-02-11T23:20:49.576Z,37.57
2018-02-11T23:23:21.032Z,35.33
2018-02-11T23:25:53.049Z,40.93
2018-02-11T23:28:24.058Z,37.70
2018-02-11T23:30:56.031Z,36.17
2018-02-11T23:33:26.809Z,39.13
2018-02-11T23:35:57.342Z,41.63
2018-02-11T23:38:28.254Z,38.43
2018-02-11T23:40:59.106Z,38.13
2018-02-11T23:43:29.909Z,38.40
2018-02-11T23:46:00.724Z,37.53
2018-02-11T23:48:32.250Z,40.00
2018-02-11T23:51:03.163Z,38.17
2018-02-11T23:53:33.936Z,38.53
2018-02-11T23:56:04.763Z,38.17
2018-02-11T23:58:35.910Z,39.93
